Time;durP1;ratioP1;P1;durP2;ratioP2;P2;SDS_P1;SDS_P2;PMS_P1;PMS_P2;Temp;Humidity;BMP_temperature;BMP_pressure;BME280_temperature;BME280_humidity;BME280_pressure;Samples;Min_cycle;Max_cycle;Signal;HPM_P1;HPM_P2
2023/01/04 00:01:33;;;;;;;9.27;6.10;;;3.90;99.90;;;;;;5032335;28;20666;-70
2023/01/04 00:03:59;;;;;;;8.73;6.03;;;3.90;99.90;;;;;;5032090;28;20685;-71
2023/01/04 00:06:26;;;;;;;8.33;6.40;;;3.90;99.90;;;;;;5032140;28;20202;-69
2023/01/04 00:08:54;;;;;;;8.80;6.53;;;3.80;99.90;;;;;;5031509;28;20547;-69
2023/01/04 00:11:22;;;;;;;10.40;6.87;;;3.80;99.90;;;;;;5031822;28;20213;-70
2023/01/04 00:13:50;;;;;;;9.73;6.70;;;3.80;99.90;;;;;;5031495;28;20232;-69
2023/01/04 00:16:21;;;;;;;8.23;6.20;;;3.80;99.90;;;;;;5031837;28;20198;-69
2023/01/04 00:18:48;;;;;;;9.73;6.27;;;3.80;99.90;;;;;;5031409;28;20276;-69
2023/01/04 00:21:17;;;;;;;9.37;6.30;;;3.70;99.90;;;;;;5031535;28;20210;-68
2023/01/04 00:23:45;;;;;;;9.23;6.50;;;3.70;99.90;;;;;;5032039;28;20568;-70
2023/01/04 00:26:14;;;;;;;10.33;6.03;;;3.70;99.90;;;;;;5031688;28;20206;-67
2023/01/04 00:28:41;;;;;;;10.20;6.30;;;3.60;99.90;;;;;;5031014;28;20545;-69
2023/01/04 00:31:10;;;;;;;9.03;6.43;;;3.60;99.90;;;;;;5031710;28;20568;-69
2023/01/04 00:33:39;;;;;;;10.83;6.60;;;3.60;99.90;;;;;;5031066;28;20202;-68
2023/01/04 00:36:07;;;;;;;8.27;6.27;;;3.50;99.90;;;;;;5031772;28;20201;-68
2023/01/04 00:38:35;;;;;;;8.63;6.07;;;3.50;99.90;;;;;;5031171;28;20229;-70
2023/01/04 00:41:03;;;;;;;10.07;6.57;;;3.50;99.90;;;;;;5030932;28;20339;-70
2023/01/04 00:43:30;;;;;;;8.27;5.67;;;3.50;99.90;;;;;;5012009;28;20210;-69
2023/01/04 00:45:57;;;;;;;10.33;6.07;;;3.50;99.90;;;;;;5017079;28;20194;-70
2023/01/04 00:48:24;;;;;;;10.07;5.67;;;3.50;99.90;;;;;;5031564;28;20230;-69
2023/01/04 00:50:52;;;;;;;7.87;5.80;;;3.50;99.90;;;;;;5031621;28;20610;-70
2023/01/04 00:53:19;;;;;;;9.67;5.67;;;3.50;99.90;;;;;;5032097;28;20205;-71
2023/01/04 00:55:46;;;;;;;6.80;5.37;;;3.50;99.90;;;;;;5035068;28;20288;-70
2023/01/04 00:58:13;;;;;;;8.37;5.60;;;3.40;99.90;;;;;;5035738;28;20216;-70
2023/01/04 01:00:40;;;;;;;7.50;5.07;;;3.40;99.90;;;;;;5035488;28;20206;-70
2023/01/04 01:03:07;;;;;;;7.70;5.43;;;3.40;99.90;;;;;;5035302;28;20210;-69
2023/01/04 01:05:35;;;;;;;6.87;5.07;;;3.40;99.90;;;;;;5035429;28;20203;-70
2023/01/04 01:08:23;;;;;;;7.07;4.70;;;3.40;99.90;;;;;;5035425;28;20662;-70
2023/01/04 01:10:50;;;;;;;7.90;5.13;;;3.30;99.90;;;;;;5034940;28;20202;-69
2023/01/04 01:13:17;;;;;;;8.37;5.10;;;3.40;99.90;;;;;;5034979;28;20194;-69
2023/01/04 01:15:44;;;;;;;7.43;4.87;;;3.30;99.90;;;;;;5035106;28;20226;-69
2023/01/04 01:18:11;;;;;;;7.43;4.77;;;3.40;99.90;;;;;;5037128;28;20198;-70
2023/01/04 01:20:42;;;;;;;8.27;5.17;;;3.30;99.90;;;;;;5036284;28;20234;-68
2023/01/04 01:23:11;;;;;;;5.70;4.17;;;3.30;99.90;;;;;;5038207;28;20202;-69
2023/01/04 01:25:38;;;;;;;6.40;4.40;;;3.30;99.90;;;;;;5034718;28;20198;-69
2023/01/04 01:28:05;;;;;;;5.33;4.20;;;3.30;99.90;;;;;;5034983;28;20676;-69
2023/01/04 01:30:32;;;;;;;6.53;4.50;;;3.30;99.90;;;;;;5035014;28;20209;-68
2023/01/04 01:32:59;;;;;;;6.53;4.53;;;3.30;99.90;;;;;;5034408;28;20206;-69
2023/01/04 01:35:26;;;;;;;7.67;4.80;;;3.30;99.90;;;;;;5034604;28;20236;-70
2023/01/04 01:37:52;;;;;;;6.10;4.20;;;3.30;99.90;;;;;;5034042;28;20240;-70
2023/01/04 01:40:20;;;;;;;7.53;4.40;;;3.20;99.90;;;;;;5034471;28;20202;-69
2023/01/04 01:42:47;;;;;;;6.67;4.40;;;3.20;99.90;;;;;;5034320;28;20210;-70
2023/01/04 01:45:28;;;;;;;6.87;4.83;;;3.20;99.90;;;;;;5034488;28;20213;-69
2023/01/04 01:48:01;;;;;;;6.60;4.40;;;3.30;99.90;;;;;;5034546;28;20205;-69
2023/01/04 01:50:32;;;;;;;7.07;4.60;;;3.30;99.90;;;;;;5034669;28;20313;-69
2023/01/04 01:53:01;;;;;;;6.80;4.30;;;3.30;99.90;;;;;;5037289;28;20208;-70
2023/01/04 01:55:31;;;;;;;6.67;4.07;;;3.30;99.90;;;;;;5054391;28;20229;-69
2023/01/04 01:57:59;;;;;;;9.07;4.30;;;3.30;99.90;;;;;;5054540;28;20653;-69
2023/01/04 02:00:28;;;;;;;8.10;4.93;;;3.30;99.90;;;;;;5051246;28;20205;-70
2023/01/04 02:03:03;;;;;;;7.77;4.87;;;3.30;99.90;;;;;;5033466;28;20217;-68
2023/01/04 02:05:31;;;;;;;11.67;6.37;;;3.40;99.90;;;;;;5034015;28;20190;-69
2023/01/04 02:07:58;;;;;;;11.90;7.20;;;3.40;99.90;;;;;;5034471;28;20206;-68
2023/01/04 02:10:25;;;;;;;8.00;5.40;;;3.40;99.90;;;;;;5033864;28;20205;-69
2023/01/04 02:12:53;;;;;;;7.37;4.77;;;3.40;99.90;;;;;;5034111;28;20224;-69
2023/01/04 02:15:27;;;;;;;4.90;3.87;;;3.40;99.90;;;;;;5034201;28;20222;-68
2023/01/04 02:18:01;;;;;;;5.87;3.80;;;3.40;99.90;;;;;;5033602;28;20194;-69
2023/01/04 02:20:38;;;;;;;5.87;3.97;;;3.30;99.90;;;;;;5033327;28;20232;-68
2023/01/04 02:23:42;;;;;;;4.90;3.80;;;3.30;99.90;;;;;;5033811;28;20186;-68
2023/01/04 02:26:40;;;;;;;7.60;4.27;;;3.30;99.90;;;;;;5033900;28;20197;-69
2023/01/04 02:29:46;;;;;;;5.70;3.90;;;3.30;99.90;;;;;;5033194;28;20197;-69
2023/01/04 02:32:21;;;;;;;7.77;4.73;;;3.30;99.90;;;;;;5013992;28;20191;-68
2023/01/04 02:34:59;;;;;;;6.53;4.20;;;3.30;99.90;;;;;;5013720;28;20214;-69
2023/01/04 02:37:35;;;;;;;6.70;4.50;;;3.30;99.90;;;;;;5013619;28;20748;-69
2023/01/04 02:40:13;;;;;;;7.13;4.30;;;3.30;99.90;;;;;;5021280;28;20565;-68
2023/01/04 02:45:38;;;;;;;6.27;4.27;;;3.20;99.90;;;;;;5033206;28;20297;-70
2023/01/04 02:50:54;;;;;;;5.90;4.03;;;3.10;99.90;;;;;;5031529;28;20368;-68
2023/01/04 02:53:25;;;;;;;6.10;4.27;;;3.20;99.90;;;;;;5032913;28;20213;-67
2023/01/04 02:55:59;;;;;;;6.70;4.37;;;3.10;99.90;;;;;;5033469;28;20225;-69
2023/01/04 02:58:51;;;;;;;6.43;4.20;;;3.10;99.90;;;;;;5033218;28;20194;-68
2023/01/04 03:07:24;;;;;;;6.67;4.30;;;3.00;99.90;;;;;;5033011;28;20189;-68
2023/01/04 03:09:54;;;;;;;7.63;4.33;;;3.00;99.90;;;;;;5032447;28;20201;-69
2023/01/04 03:12:33;;;;;;;6.13;4.33;;;2.90;99.90;;;;;;5031947;28;20666;-70
2023/01/04 03:15:06;;;;;;;6.60;4.77;;;2.90;99.90;;;;;;5032547;28;20218;-69
2023/01/04 03:17:39;;;;;;;7.80;4.90;;;2.90;99.90;;;;;;5031262;28;20206;-69
2023/01/04 03:20:09;;;;;;;7.17;4.80;;;2.90;99.90;;;;;;5032895;28;20641;-70
2023/01/04 03:36:54;;;;;;;6.27;4.67;;;2.90;99.90;;;;;;5030323;28;20761;-68
2023/01/04 03:50:58;;;;;;;6.83;5.30;;;2.80;99.90;;;;;;4991709;28;20234;-68
2023/01/04 03:53:28;;;;;;;6.97;5.33;;;2.80;99.90;;;;;;4992726;28;20195;-69
2023/01/04 03:55:57;;;;;;;10.33;5.07;;;2.80;99.90;;;;;;4992625;28;20231;-68
2023/01/04 03:58:24;;;;;;;7.73;5.60;;;2.80;99.90;;;;;;4992275;28;20215;-68
2023/01/04 04:00:51;;;;;;;7.43;4.80;;;2.80;99.90;;;;;;4992628;28;20214;-68
2023/01/04 04:03:18;;;;;;;6.90;5.40;;;2.80;99.90;;;;;;4992538;28;20556;-70
2023/01/04 04:08:32;;;;;;;7.87;5.57;;;2.80;99.90;;;;;;4991987;28;20566;-69
2023/01/04 04:11:29;;;;;;;8.90;5.40;;;2.90;99.90;;;;;;4992302;28;20572;-68
2023/01/04 04:13:49;;;;;;;7.20;5.00;;;2.90;99.90;;;;;;4992170;28;20262;-69
2023/01/04 04:16:17;;;;;;;7.83;5.30;;;2.90;99.90;;;;;;4994577;28;20231;-69
2023/01/04 04:18:44;;;;;;;8.10;5.10;;;2.90;99.90;;;;;;4992710;28;20214;-68
2023/01/04 04:21:10;;;;;;;10.00;5.53;;;2.90;99.90;;;;;;4992485;28;20203;-68
2023/01/04 04:23:39;;;;;;;7.10;5.00;;;2.90;99.90;;;;;;4992702;28;20254;-68
2023/01/04 04:26:06;;;;;;;9.20;5.60;;;2.90;99.90;;;;;;4991815;28;20675;-70
2023/01/04 04:28:33;;;;;;;8.33;5.80;;;2.90;99.90;;;;;;4992146;28;20207;-68
2023/01/04 04:31:00;;;;;;;9.60;6.23;;;2.90;99.90;;;;;;4992349;28;20695;-73
2023/01/04 04:33:26;;;;;;;9.00;6.00;;;2.90;99.90;;;;;;4991942;28;20227;-68
2023/01/04 04:35:54;;;;;;;8.97;6.80;;;2.90;99.90;;;;;;4991827;28;20582;-70
2023/01/04 04:38:21;;;;;;;9.57;6.67;;;2.90;99.90;;;;;;5017223;28;20246;-68
2023/01/04 04:43:34;;;;;;;8.30;5.93;;;2.90;99.90;;;;;;5031314;28;20193;-69
2023/01/04 04:46:02;;;;;;;7.83;5.90;;;2.90;99.90;;;;;;5029935;28;20570;-69
2023/01/04 04:48:28;;;;;;;10.30;5.83;;;2.90;99.90;;;;;;5031411;28;20216;-69
2023/01/04 04:50:55;;;;;;;8.70;5.93;;;2.90;99.90;;;;;;5031542;28;20209;-69
2023/01/04 04:53:22;;;;;;;8.03;5.97;;;2.90;99.90;;;;;;5031394;28;20210;-68
2023/01/04 04:55:52;;;;;;;10.07;5.67;;;2.90;99.90;;;;;;5030423;28;20230;-69
2023/01/04 04:58:19;;;;;;;7.60;5.53;;;2.90;99.90;;;;;;5031641;28;20201;-69
2023/01/04 05:00:46;;;;;;;7.83;5.67;;;2.90;99.90;;;;;;5031532;28;20577;-67
2023/01/04 05:03:13;;;;;;;8.57;6.00;;;2.90;99.90;;;;;;5030880;28;20214;-68
2023/01/04 05:05:40;;;;;;;7.80;5.73;;;2.90;99.90;;;;;;5030409;28;20213;-69
2023/01/04 05:08:06;;;;;;;7.77;5.60;;;3.00;99.90;;;;;;5031290;28;20213;-69
2023/01/04 05:10:34;;;;;;;10.90;6.20;;;3.00;99.90;;;;;;5031308;28;20205;-68
2023/01/04 05:13:03;;;;;;;6.80;5.37;;;3.00;99.90;;;;;;5031360;28;20578;-69
2023/01/04 05:15:33;;;;;;;10.30;5.60;;;3.00;99.90;;;;;;5030698;28;20230;-69
2023/01/04 05:18:00;;;;;;;6.40;5.20;;;3.00;99.90;;;;;;5030601;28;20194;-68
2023/01/04 05:20:27;;;;;;;9.57;5.93;;;3.10;99.90;;;;;;5031103;28;20646;-70
2023/01/04 05:22:53;;;;;;;7.77;5.60;;;3.10;99.90;;;;;;5031406;28;20214;-69
2023/01/04 05:25:20;;;;;;;9.93;6.27;;;3.10;99.90;;;;;;5030373;28;20198;-68
2023/01/04 05:27:47;;;;;;;11.13;6.57;;;3.10;99.90;;;;;;5031176;28;20683;-69
2023/01/04 05:33:01;;;;;;;7.57;5.73;;;3.10;99.90;;;;;;5031040;28;20209;-69
2023/01/04 05:35:28;;;;;;;8.30;5.30;;;3.10;99.90;;;;;;5030137;28;20226;-68
2023/01/04 05:37:55;;;;;;;9.73;5.53;;;3.20;99.90;;;;;;5030644;28;20267;-69
2023/01/04 05:40:23;;;;;;;7.07;5.53;;;3.20;99.90;;;;;;5032518;28;20221;-69
2023/01/04 05:42:49;;;;;;;9.60;6.13;;;3.20;99.90;;;;;;5034692;28;20202;-69
2023/01/04 05:45:18;;;;;;;8.47;5.87;;;3.20;99.90;;;;;;5033755;28;20209;-69
2023/01/04 05:47:45;;;;;;;10.20;6.27;;;3.20;99.90;;;;;;5033329;28;20230;-68
2023/01/04 05:50:11;;;;;;;9.10;6.33;;;3.30;99.90;;;;;;5033935;28;20202;-68
2023/01/04 05:52:38;;;;;;;8.90;6.23;;;3.30;99.90;;;;;;5034420;28;20206;-69
2023/01/04 05:55:06;;;;;;;9.77;6.27;;;3.30;99.90;;;;;;5033751;28;20225;-68
2023/01/04 05:57:32;;;;;;;9.47;6.80;;;3.30;99.90;;;;;;5034388;28;20559;-69
2023/01/04 05:59:59;;;;;;;11.07;6.63;;;3.30;99.90;;;;;;5033467;28;20202;-69
2023/01/04 06:02:29;;;;;;;9.00;6.57;;;3.30;99.90;;;;;;5034036;28;20289;-68
2023/01/04 06:04:56;;;;;;;12.00;6.17;;;3.40;99.90;;;;;;5034533;28;20693;-68
2023/01/04 06:07:24;;;;;;;8.50;6.00;;;3.40;99.90;;;;;;5033850;28;20208;-68
2023/01/04 06:09:51;;;;;;;11.33;5.83;;;3.40;99.90;;;;;;5033791;28;20210;-69
2023/01/04 06:12:17;;;;;;;10.97;6.30;;;3.40;99.90;;;;;;5033990;28;20217;-70
2023/01/04 06:14:45;;;;;;;10.73;5.93;;;3.40;99.90;;;;;;5032683;28;20213;-69
2023/01/04 06:17:12;;;;;;;10.30;6.80;;;3.40;99.90;;;;;;5033740;28;20295;-69
2023/01/04 06:19:40;;;;;;;10.23;6.70;;;3.50;99.90;;;;;;5033934;28;20202;-68
2023/01/04 06:22:07;;;;;;;12.00;6.47;;;3.40;99.90;;;;;;5033918;28;20813;-72
2023/01/04 06:24:34;;;;;;;9.30;6.57;;;3.50;99.90;;;;;;5032982;28;20206;-71
2023/01/04 06:27:01;;;;;;;7.17;5.70;;;3.50;99.90;;;;;;5033118;28;20198;-70
2023/01/04 06:29:28;;;;;;;8.53;5.67;;;3.50;99.90;;;;;;5033310;28;20222;-71
2023/01/04 06:31:55;;;;;;;9.53;5.63;;;3.50;99.90;;;;;;5032987;28;20213;-71
2023/01/04 06:34:22;;;;;;;9.53;6.20;;;3.50;99.90;;;;;;5033245;28;20775;-69
2023/01/04 06:36:50;;;;;;;8.43;5.40;;;3.50;99.90;;;;;;5029619;28;20678;-70
2023/01/04 06:39:17;;;;;;;9.40;6.50;;;3.50;99.90;;;;;;5033390;28;20206;-71
2023/01/04 06:41:44;;;;;;;8.77;5.97;;;3.50;99.90;;;;;;5033555;28;20529;-69
2023/01/04 06:44:11;;;;;;;7.47;5.70;;;3.60;99.90;;;;;;5031916;28;20214;-69
2023/01/04 06:46:38;;;;;;;8.60;5.67;;;3.60;99.90;;;;;;5032927;28;20676;-71
2023/01/04 06:49:05;;;;;;;10.87;6.50;;;3.60;99.90;;;;;;5032551;28;20210;-70
2023/01/04 06:51:31;;;;;;;9.70;5.87;;;3.60;99.90;;;;;;5033322;28;20202;-71
2023/01/04 06:53:59;;;;;;;11.23;5.87;;;3.70;99.90;;;;;;5032924;28;20213;-71
2023/01/04 06:56:26;;;;;;;9.57;6.00;;;3.70;99.90;;;;;;5033199;28;20233;-70
2023/01/04 06:58:53;;;;;;;11.10;6.60;;;3.70;99.90;;;;;;5031999;28;20216;-70
2023/01/04 07:01:20;;;;;;;12.67;6.97;;;3.70;99.90;;;;;;5032367;28;20206;-71
2023/01/04 07:03:46;;;;;;;12.30;7.00;;;3.70;99.90;;;;;;5032757;28;20206;-71
2023/01/04 07:06:13;;;;;;;10.03;6.73;;;3.70;99.90;;;;;;5032832;28;20201;-70
2023/01/04 07:08:40;;;;;;;9.63;6.03;;;3.70;99.90;;;;;;5032363;28;20212;-71
2023/01/04 07:11:08;;;;;;;10.37;6.67;;;3.70;99.90;;;;;;5032554;28;20221;-70
2023/01/04 07:13:35;;;;;;;10.90;6.30;;;3.70;99.90;;;;;;5033033;28;20650;-70
2023/01/04 07:16:02;;;;;;;8.73;5.90;;;3.80;99.90;;;;;;5032633;28;20579;-71
2023/01/04 07:18:28;;;;;;;9.90;6.10;;;3.80;99.90;;;;;;5031295;28;20654;-71
2023/01/04 07:20:55;;;;;;;9.50;6.00;;;3.80;99.90;;;;;;5032559;28;20212;-71
2023/01/04 07:23:22;;;;;;;11.37;6.07;;;3.80;99.90;;;;;;5032760;28;20216;-71
2023/01/04 07:25:49;;;;;;;8.87;5.90;;;3.90;99.90;;;;;;5032551;28;20210;-70
2023/01/04 07:29:13;;;;;;;11.80;5.80;;;3.90;99.90;;;;;;5031334;28;20233;-70
2023/01/04 07:31:06;;;;;;;8.73;5.47;;;3.90;99.90;;;;;;5041704;28;20751;-71
2023/01/04 07:33:32;;;;;;;10.50;5.73;;;3.90;99.90;;;;;;5052600;28;20205;-72
2023/01/04 07:36:02;;;;;;;10.67;6.33;;;4.00;99.90;;;;;;5033944;28;20232;-71
2023/01/04 07:38:29;;;;;;;11.83;6.17;;;4.00;99.90;;;;;;5031738;28;20287;-71
2023/01/04 07:40:56;;;;;;;8.33;5.87;;;4.00;99.90;;;;;;5031614;28;20250;-70
2023/01/04 07:43:24;;;;;;;9.37;5.90;;;4.10;99.90;;;;;;5032044;28;20206;-72
2023/01/04 07:45:51;;;;;;;8.87;5.43;;;4.10;99.90;;;;;;5030976;28;20293;-70
2023/01/04 07:48:18;;;;;;;9.23;5.80;;;4.20;99.90;;;;;;5031534;28;20236;-71
2023/01/04 07:50:45;;;;;;;10.00;5.60;;;4.20;99.90;;;;;;5032040;28;20212;-71
2023/01/04 07:53:12;;;;;;;10.17;6.00;;;4.30;99.90;;;;;;5031956;28;20209;-70
2023/01/04 07:55:39;;;;;;;8.77;5.13;;;4.30;99.90;;;;;;5031168;28;20206;-70
2023/01/04 07:58:05;;;;;;;7.80;4.93;;;4.30;99.90;;;;;;5031204;28;20689;-70
2023/01/04 08:00:34;;;;;;;9.07;5.47;;;4.30;99.90;;;;;;5032018;28;20217;-72
2023/01/04 08:03:00;;;;;;;7.57;5.23;;;4.40;99.90;;;;;;5031186;28;20206;-71
2023/01/04 08:05:27;;;;;;;9.30;5.40;;;4.40;99.90;;;;;;5031395;28;20202;-71
2023/01/04 08:07:54;;;;;;;6.90;5.03;;;4.40;99.90;;;;;;5031626;28;20210;-70
2023/01/04 08:10:21;;;;;;;10.77;6.17;;;4.40;99.90;;;;;;5031919;28;20201;-71
2023/01/04 08:12:48;;;;;;;7.73;4.90;;;4.40;99.90;;;;;;5031444;28;20209;-72
2023/01/04 08:15:15;;;;;;;10.47;5.63;;;4.40;99.90;;;;;;5030165;28;20217;-72
2023/01/04 08:17:43;;;;;;;9.47;5.17;;;4.50;99.90;;;;;;5031417;28;20233;-70
2023/01/04 08:20:11;;;;;;;9.37;5.47;;;4.50;99.90;;;;;;5031506;28;20581;-72
2023/01/04 08:22:38;;;;;;;9.50;4.90;;;4.50;99.90;;;;;;5031513;28;20217;-71
2023/01/04 08:25:05;;;;;;;9.47;5.50;;;4.50;99.90;;;;;;5030670;28;20205;-70
2023/01/04 08:27:33;;;;;;;8.83;6.50;;;4.50;99.90;;;;;;5031671;28;20560;-70
2023/01/04 08:30:00;;;;;;;8.83;5.87;;;4.50;99.90;;;;;;5031516;28;20206;-72
2023/01/04 08:32:27;;;;;;;9.27;5.97;;;4.60;99.90;;;;;;5034434;28;20213;-71
2023/01/04 08:34:55;;;;;;;9.27;5.53;;;4.60;99.90;;;;;;5031078;28;20202;-71
2023/01/04 08:37:22;;;;;;;8.77;5.43;;;4.60;99.90;;;;;;5028889;28;20272;-71
2023/01/04 08:39:48;;;;;;;11.93;5.87;;;4.60;99.90;;;;;;5035624;28;20197;-72
2023/01/04 08:42:15;;;;;;;9.13;5.70;;;4.60;99.90;;;;;;5034216;28;20213;-72
2023/01/04 08:44:42;;;;;;;12.47;5.60;;;4.70;99.90;;;;;;5034126;28;20198;-71
2023/01/04 08:47:09;;;;;;;9.07;5.27;;;4.70;99.90;;;;;;5030170;28;20210;-71
2023/01/04 08:49:36;;;;;;;11.53;5.60;;;4.70;99.90;;;;;;5029766;28;20205;-70
2023/01/04 08:52:04;;;;;;;10.53;5.20;;;4.80;99.90;;;;;;5029638;28;20233;-72
2023/01/04 08:54:32;;;;;;;11.40;5.40;;;4.80;99.90;;;;;;5029874;28;20229;-73
2023/01/04 08:56:59;;;;;;;8.33;5.00;;;4.80;99.90;;;;;;5029913;28;20230;-71
2023/01/04 08:59:26;;;;;;;8.13;5.17;;;4.90;99.90;;;;;;5029980;28;20216;-70
2023/01/04 09:01:52;;;;;;;7.20;4.90;;;4.90;99.90;;;;;;5030886;28;20206;-70
2023/01/04 09:04:19;;;;;;;8.80;5.37;;;4.90;99.90;;;;;;5031083;28;20214;-71
2023/01/04 09:06:46;;;;;;;9.00;5.33;;;4.90;99.90;;;;;;5031335;28;20594;-71
2023/01/04 09:09:15;;;;;;;8.57;4.83;;;4.90;99.90;;;;;;5031456;28;20206;-70
2023/01/04 09:11:42;;;;;;;10.07;4.93;;;5.00;99.90;;;;;;5031032;28;20221;-71
2023/01/04 09:14:09;;;;;;;7.03;4.60;;;4.90;99.90;;;;;;5031578;28;20212;-71
2023/01/04 09:16:37;;;;;;;6.77;4.70;;;5.00;99.90;;;;;;5035876;28;20240;-70
2023/01/04 09:19:05;;;;;;;8.50;4.73;;;5.00;99.90;;;;;;5055266;28;20205;-71
2023/01/04 09:21:31;;;;;;;7.83;4.90;;;5.00;99.90;;;;;;5054982;28;20208;-71
2023/01/04 09:23:58;;;;;;;8.90;4.67;;;5.00;99.90;;;;;;5055181;28;20209;-70
2023/01/04 09:26:27;;;;;;;8.73;4.80;;;5.00;99.90;;;;;;5034506;28;20658;-71
2023/01/04 09:28:55;;;;;;;8.20;4.53;;;5.00;99.90;;;;;;5034887;28;20563;-72
2023/01/04 09:31:23;;;;;;;7.77;4.87;;;5.10;99.90;;;;;;5034158;28;20202;-72
2023/01/04 09:33:50;;;;;;;8.53;4.60;;;5.00;99.90;;;;;;5036063;28;20205;-70
2023/01/04 09:36:19;;;;;;;6.60;4.40;;;5.10;99.90;;;;;;5033525;28;20213;-73
2023/01/04 09:38:48;;;;;;;9.07;4.80;;;5.00;99.90;;;;;;5034394;28;20598;-71
2023/01/04 09:41:22;;;;;;;6.27;4.17;;;5.00;99.90;;;;;;5033990;28;20210;-73
2023/01/04 09:43:52;;;;;;;7.97;4.43;;;5.00;99.90;;;;;;5034563;28;20709;-71
2023/01/04 09:46:28;;;;;;;7.23;4.30;;;5.00;99.90;;;;;;5034506;28;20202;-70
2023/01/04 09:49:04;;;;;;;18.73;10.43;;;5.10;99.90;;;;;;5034921;28;20553;-71
2023/01/04 09:51:36;;;;;;;12.70;7.47;;;5.20;99.90;;;;;;5034196;28;20206;-71
2023/01/04 09:54:07;;;;;;;7.33;4.60;;;5.20;99.90;;;;;;5034462;28;20190;-70
2023/01/04 09:56:37;;;;;;;8.27;4.20;;;5.20;99.90;;;;;;5034441;28;20195;-72
2023/01/04 09:59:11;;;;;;;7.37;4.30;;;5.30;99.90;;;;;;5034578;28;20293;-70
2023/01/04 10:01:44;;;;;;;5.73;3.70;;;5.30;99.90;;;;;;5033833;28;20208;-70
2023/01/04 10:04:19;;;;;;;8.17;4.27;;;5.30;99.90;;;;;;5014759;28;20475;-71
2023/01/04 10:06:47;;;;;;;6.90;3.80;;;5.30;99.90;;;;;;5014677;28;20638;-70
2023/01/04 10:09:16;;;;;;;6.13;3.90;;;5.30;99.90;;;;;;5032180;28;20205;-70
2023/01/04 10:12:10;;;;;;;7.10;3.93;;;5.20;99.90;;;;;;5034196;28;20210;-71
2023/01/04 10:14:57;;;;;;;7.03;3.70;;;5.30;99.90;;;;;;5033610;28;20209;-71
2023/01/04 10:17:36;;;;;;;6.43;3.73;;;5.20;99.90;;;;;;5033767;28;20206;-71
2023/01/04 10:20:28;;;;;;;6.07;3.73;;;5.30;99.90;;;;;;5034144;28;20627;-70
2023/01/04 10:23:02;;;;;;;5.93;3.50;;;5.30;99.90;;;;;;5033427;28;20213;-71
2023/01/04 10:25:36;;;;;;;5.53;3.33;;;5.30;99.90;;;;;;5033313;28;20206;-70
2023/01/04 10:28:28;;;;;;;5.80;3.70;;;5.20;99.90;;;;;;5033911;28;20191;-72
2023/01/04 10:31:05;;;;;;;6.03;3.70;;;5.10;99.90;;;;;;5033607;28;20201;-73
2023/01/04 10:33:38;;;;;;;8.17;4.10;;;5.10;99.90;;;;;;5023766;28;20205;-70
2023/01/04 10:36:16;;;;;;;6.77;3.63;;;5.10;99.90;;;;;;5030192;28;20213;-70
2023/01/04 10:38:43;;;;;;;5.57;3.73;;;5.10;99.90;;;;;;5029675;28;20248;-73
2023/01/04 10:41:20;;;;;;;5.73;4.20;;;5.10;99.90;;;;;;5033600;28;20210;-71
2023/01/04 10:43:57;;;;;;;7.27;4.17;;;5.10;99.90;;;;;;5033422;28;20225;-70
2023/01/04 10:46:29;;;;;;;7.27;4.57;;;5.10;99.90;;;;;;5044101;28;20373;-71
2023/01/04 10:49:03;;;;;;;11.40;5.67;;;5.00;99.90;;;;;;5032924;28;20191;-70
2023/01/04 10:51:36;;;;;;;8.13;5.67;;;5.00;99.90;;;;;;5033158;28;20561;-71
2023/01/04 10:54:11;;;;;;;8.93;5.33;;;5.00;99.90;;;;;;5032729;28;20205;-70
2023/01/04 10:56:44;;;;;;;13.53;6.17;;;5.10;99.90;;;;;;5033201;28;20560;-71
2023/01/04 10:59:16;;;;;;;12.63;6.57;;;5.10;99.90;;;;;;5033125;28;20570;-68
2023/01/04 11:01:48;;;;;;;11.00;6.33;;;5.10;99.90;;;;;;5033125;28;20630;-71
2023/01/04 11:04:19;;;;;;;13.33;6.97;;;5.10;99.90;;;;;;5033042;28;20194;-70
2023/01/04 11:06:52;;;;;;;12.43;7.47;;;5.10;99.90;;;;;;5032920;28;20191;-70
2023/01/04 11:09:23;;;;;;;10.57;6.93;;;5.00;99.90;;;;;;5032579;28;20198;-71
2023/01/04 11:11:51;;;;;;;10.67;7.03;;;4.90;99.90;;;;;;5032723;28;20201;-70
2023/01/04 11:14:17;;;;;;;9.70;5.93;;;4.80;99.90;;;;;;5032851;28;20560;-71
2023/01/04 11:16:49;;;;;;;8.10;5.87;;;4.80;99.90;;;;;;5032603;28;20214;-69
2023/01/04 11:19:16;;;;;;;7.63;5.07;;;4.70;99.90;;;;;;5032980;28;20204;-70
2023/01/04 11:21:48;;;;;;;7.13;4.90;;;4.70;99.90;;;;;;5032503;28;20209;-72
2023/01/04 11:24:17;;;;;;;8.30;4.87;;;4.70;99.90;;;;;;5032398;28;20659;-71
2023/01/04 11:26:47;;;;;;;8.33;4.70;;;4.70;99.90;;;;;;5031662;28;20260;-70
2023/01/04 11:29:26;;;;;;;5.23;3.90;;;4.60;99.90;;;;;;5031477;28;20248;-70
2023/01/04 11:32:00;;;;;;;6.63;4.30;;;4.60;99.90;;;;;;5032959;28;20193;-69
2023/01/04 11:34:45;;;;;;;6.33;3.90;;;4.60;99.90;;;;;;5032466;28;20237;-70
2023/01/04 11:37:26;;;;;;;6.10;4.43;;;4.70;99.90;;;;;;5031787;28;20242;-69
2023/01/04 11:40:10;;;;;;;6.23;4.20;;;4.70;99.90;;;;;;5032675;28;20198;-71
2023/01/04 11:42:37;;;;;;;5.67;4.40;;;4.60;99.90;;;;;;5032125;28;20236;-70
2023/01/04 11:45:04;;;;;;;7.30;4.43;;;4.60;99.90;;;;;;5032679;28;20205;-71
2023/01/04 11:47:32;;;;;;;5.60;3.80;;;4.70;99.90;;;;;;5030328;28;20215;-70
2023/01/04 11:49:59;;;;;;;5.83;3.70;;;4.70;99.90;;;;;;5025999;28;20665;-71
2023/01/04 11:52:31;;;;;;;7.57;4.00;;;4.70;99.90;;;;;;5027906;28;20213;-71
2023/01/04 14:26:36;;;;;;;8.53;5.30;;;3.60;99.90;;;;;;5087883;28;20600;-68
2023/01/04 14:29:21;;;;;;;7.60;4.67;;;3.60;99.90;;;;;;5089643;28;20196;-71
2023/01/04 14:31:50;;;;;;;7.50;5.23;;;3.70;99.90;;;;;;5069496;28;20292;-70
2023/01/04 14:34:17;;;;;;;8.83;5.63;;;3.70;99.90;;;;;;5069512;28;20568;-71
2023/01/04 14:36:44;;;;;;;9.63;6.30;;;3.80;99.90;;;;;;5070332;28;20201;-67
2023/01/04 14:41:56;;;;;;;10.90;6.97;;;3.90;99.90;;;;;;5112286;22;20236;-69
2023/01/04 14:44:24;;;;;;;10.53;7.10;;;4.00;99.90;;;;;;5061723;28;20275;-68
2023/01/04 14:46:54;;;;;;;12.07;7.80;;;4.00;99.90;;;;;;5068090;28;20505;-68
2023/01/04 14:49:22;;;;;;;13.77;7.43;;;4.10;99.90;;;;;;5084915;28;20679;-67
2023/01/04 14:51:52;;;;;;;11.30;6.90;;;4.10;99.90;;;;;;5088815;28;20199;-68
2023/01/04 14:54:20;;;;;;;11.83;6.20;;;4.10;99.90;;;;;;5089561;28;20560;-68
2023/01/04 14:56:46;;;;;;;9.00;5.80;;;4.10;99.90;;;;;;5088753;28;20204;-68
2023/01/04 14:59:14;;;;;;;9.93;6.47;;;4.10;99.90;;;;;;5088432;28;20204;-67
2023/01/04 15:01:41;;;;;;;10.27;6.23;;;4.10;99.90;;;;;;5088932;28;20552;-67
2023/01/04 15:04:08;;;;;;;9.90;6.90;;;4.10;99.90;;;;;;5089454;28;20204;-67
2023/01/04 15:06:35;;;;;;;10.87;7.23;;;4.10;99.90;;;;;;5089019;28;20196;-67
2023/01/04 15:09:03;;;;;;;10.70;7.57;;;4.10;99.90;;;;;;5088613;28;20199;-68
2023/01/04 15:11:30;;;;;;;10.53;7.87;;;4.10;99.90;;;;;;5089524;28;20247;-67
2023/01/04 15:13:57;;;;;;;12.10;8.10;;;4.00;99.90;;;;;;5088514;28;20266;-68
2023/01/04 15:16:25;;;;;;;14.27;7.90;;;4.00;99.90;;;;;;5086165;28;20197;-70
2023/01/04 15:18:52;;;;;;;12.27;8.27;;;4.00;99.90;;;;;;5088813;28;20200;-68
2023/01/04 15:21:19;;;;;;;15.30;9.53;;;4.00;99.90;;;;;;5089141;28;20201;-69
2023/01/04 15:23:46;;;;;;;14.93;9.17;;;3.90;99.90;;;;;;5088817;28;20208;-69
2023/01/04 15:26:12;;;;;;;15.57;8.77;;;3.90;99.90;;;;;;5088579;28;20224;-69
2023/01/04 15:28:39;;;;;;;17.67;9.83;;;3.90;99.90;;;;;;5088580;28;20306;-69
2023/01/04 15:31:08;;;;;;;17.93;10.47;;;3.90;99.90;;;;;;5088505;28;20211;-69
2023/01/04 15:33:36;;;;;;;16.60;10.02;;;3.90;99.90;;;;;;5085918;28;20840;-69
2023/01/04 15:36:05;;;;;;;15.63;10.10;;;3.90;99.90;;;;;;5084250;28;20201;-68
2023/01/04 15:38:32;;;;;;;18.27;10.77;;;3.90;99.90;;;;;;5075602;28;20213;-68
2023/01/04 15:41:01;;;;;;;17.70;10.90;;;3.80;99.90;;;;;;5075052;28;20346;-68
2023/01/04 15:43:27;;;;;;;18.20;11.50;;;3.80;99.90;;;;;;5075440;28;20674;-68
2023/01/04 15:45:53;;;;;;;16.63;11.30;;;3.70;99.90;;;;;;5075565;28;20320;-69
2023/01/04 15:48:20;;;;;;;22.47;13.17;;;3.70;99.90;;;;;;5075180;28;20229;-69
2023/01/04 15:50:48;;;;;;;24.20;14.23;;;3.70;99.90;;;;;;5076599;28;20200;-68
2023/01/04 15:53:15;;;;;;;22.47;14.60;;;3.60;99.90;;;;;;5075654;28;20197;-68
2023/01/04 15:55:42;;;;;;;22.37;15.13;;;3.60;99.90;;;;;;5074787;28;20254;-69
2023/01/04 15:58:09;;;;;;;24.17;14.83;;;3.60;99.90;;;;;;5074838;28;20197;-68
2023/01/04 16:00:36;;;;;;;23.33;14.47;;;3.60;99.90;;;;;;5073378;28;20197;-69
2023/01/04 16:03:04;;;;;;;19.87;12.60;;;3.50;99.90;;;;;;5059589;28;20669;-68
2023/01/04 16:05:31;;;;;;;21.87;12.63;;;3.50;99.90;;;;;;5064938;28;20233;-68
2023/01/04 16:07:59;;;;;;;21.20;13.30;;;3.40;99.90;;;;;;5054877;28;20228;-68
2023/01/04 16:10:27;;;;;;;28.37;17.37;;;3.40;99.90;;;;;;5055172;28;20213;-68
2023/01/04 16:12:54;;;;;;;25.70;16.00;;;3.40;99.90;;;;;;5070950;28;20208;-68
2023/01/04 16:15:21;;;;;;;23.20;15.23;;;3.30;99.90;;;;;;5071881;28;20554;-69
2023/01/04 16:17:49;;;;;;;22.50;13.80;;;3.30;99.90;;;;;;5074556;28;20204;-69
2023/01/04 16:20:17;;;;;;;22.27;13.43;;;3.30;99.90;;;;;;5074739;28;20205;-68
2023/01/04 16:22:44;;;;;;;23.33;13.30;;;3.30;99.90;;;;;;5074163;28;20300;-69
2023/01/04 16:25:12;;;;;;;21.37;13.17;;;3.20;99.90;;;;;;5074587;28;20696;-67